Jaborandi, Brazil
Current Conditions -  °F | °C
As of 9:00 AM on Sunday 21 Dec 2014 (Local Time) from SBMK Reporting Station
Overcast Overcast  
Wind Chill: 70°   Ceiling: 400
Heat Index: 70°   Visibility: 6mi
Dew Point: 68°   Wind: 9mph
Humidity: 94%   Direction: 30°NNE
Pressure: 30.09"   Gusts: NA
Location:  13.62°S, 44.43°W
Report Text: SBMK 211200Z 03008KT 9000 3000E BKN004 BKN009 OVC080 21/20 Q1019
Loading
Personal Weather Stations






























Interactive Weather Map New forecast layout! Learn more

10-Day Weather Forecast

Advertisements
Track Severe Weather on mobile